sensor_id;sensor_type;location;lat;lon;timestamp;P1;durP1;ratioP1;P2;durP2;ratioP2
6564;SDS011;3316;44.118;27.258;2024-03-07T00:00:00;48.70;;;26.03;;
6564;SDS011;3316;44.118;27.258;2024-03-07T00:02:40;49.60;;;26.13;;
6564;SDS011;3316;44.118;27.258;2024-03-07T00:05:09;56.30;;;26.53;;
6564;SDS011;3316;44.118;27.258;2024-03-07T00:07:36;47.43;;;27.03;;
6564;SDS011;3316;44.118;27.258;2024-03-07T00:10:02;47.90;;;25.27;;
6564;SDS011;3316;44.118;27.258;2024-03-07T00:12:28;39.60;;;20.27;;
6564;SDS011;3316;44.118;27.258;2024-03-07T00:14:55;40.93;;;21.97;;
6564;SDS011;3316;44.118;27.258;2024-03-07T00:17:20;34.87;;;18.80;;
6564;SDS011;3316;44.118;27.258;2024-03-07T00:19:46;36.13;;;18.90;;
6564;SDS011;3316;44.118;27.258;2024-03-07T00:22:13;37.93;;;20.00;;
6564;SDS011;3316;44.118;27.258;2024-03-07T00:24:39;33.80;;;18.33;;
6564;SDS011;3316;44.118;27.258;2024-03-07T00:27:05;40.10;;;21.13;;
6564;SDS011;3316;44.118;27.258;2024-03-07T00:29:30;41.63;;;20.80;;
6564;SDS011;3316;44.118;27.258;2024-03-07T00:31:56;39.10;;;20.53;;
6564;SDS011;3316;44.118;27.258;2024-03-07T00:34:22;44.50;;;22.77;;
6564;SDS011;3316;44.118;27.258;2024-03-07T00:36:48;43.50;;;20.87;;
6564;SDS011;3316;44.118;27.258;2024-03-07T00:39:13;34.23;;;19.13;;
6564;SDS011;3316;44.118;27.258;2024-03-07T00:41:39;41.30;;;19.33;;
6564;SDS011;3316;44.118;27.258;2024-03-07T00:44:05;37.73;;;20.10;;
6564;SDS011;3316;44.118;27.258;2024-03-07T00:46:37;44.33;;;21.80;;
6564;SDS011;3316;44.118;27.258;2024-03-07T00:49:03;51.43;;;23.47;;
6564;SDS011;3316;44.118;27.258;2024-03-07T00:51:30;37.70;;;20.27;;
6564;SDS011;3316;44.118;27.258;2024-03-07T00:53:56;36.97;;;20.70;;
6564;SDS011;3316;44.118;27.258;2024-03-07T00:56:21;42.67;;;20.57;;
6564;SDS011;3316;44.118;27.258;2024-03-07T00:58:50;33.67;;;18.43;;
6564;SDS011;3316;44.118;27.258;2024-03-07T01:01:16;37.53;;;19.93;;
6564;SDS011;3316;44.118;27.258;2024-03-07T01:03:43;39.73;;;19.93;;
6564;SDS011;3316;44.118;27.258;2024-03-07T01:06:09;41.33;;;21.47;;
6564;SDS011;3316;44.118;27.258;2024-03-07T01:08:35;39.90;;;20.87;;
6564;SDS011;3316;44.118;27.258;2024-03-07T01:11:02;43.07;;;20.17;;
6564;SDS011;3316;44.118;27.258;2024-03-07T01:13:34;37.30;;;19.30;;
6564;SDS011;3316;44.118;27.258;2024-03-07T01:16:01;36.57;;;20.30;;
6564;SDS011;3316;44.118;27.258;2024-03-07T01:18:27;37.97;;;22.30;;
6564;SDS011;3316;44.118;27.258;2024-03-07T01:20:52;39.67;;;21.97;;
6564;SDS011;3316;44.118;27.258;2024-03-07T01:23:18;39.43;;;22.23;;
6564;SDS011;3316;44.118;27.258;2024-03-07T01:25:43;43.20;;;22.73;;
6564;SDS011;3316;44.118;27.258;2024-03-07T01:28:08;46.43;;;23.53;;
6564;SDS011;3316;44.118;27.258;2024-03-07T01:30:37;41.83;;;22.73;;
6564;SDS011;3316;44.118;27.258;2024-03-07T01:33:03;40.90;;;23.33;;
6564;SDS011;3316;44.118;27.258;2024-03-07T01:35:28;36.67;;;21.50;;
6564;SDS011;3316;44.118;27.258;2024-03-07T01:37:54;35.17;;;20.37;;
6564;SDS011;3316;44.118;27.258;2024-03-07T01:40:19;35.27;;;19.47;;
6564;SDS011;3316;44.118;27.258;2024-03-07T01:42:47;37.93;;;20.13;;
6564;SDS011;3316;44.118;27.258;2024-03-07T01:45:16;38.30;;;19.17;;
6564;SDS011;3316;44.118;27.258;2024-03-07T01:47:43;39.43;;;19.50;;
6564;SDS011;3316;44.118;27.258;2024-03-07T01:50:09;38.83;;;18.53;;
6564;SDS011;3316;44.118;27.258;2024-03-07T01:52:35;34.77;;;20.17;;
6564;SDS011;3316;44.118;27.258;2024-03-07T01:55:02;41.60;;;19.43;;
6564;SDS011;3316;44.118;27.258;2024-03-07T01:57:28;37.63;;;17.93;;
6564;SDS011;3316;44.118;27.258;2024-03-07T01:59:53;37.73;;;20.33;;
6564;SDS011;3316;44.118;27.258;2024-03-07T02:02:19;39.80;;;19.27;;
6564;SDS011;3316;44.118;27.258;2024-03-07T02:04:45;41.67;;;20.07;;
6564;SDS011;3316;44.118;27.258;2024-03-07T02:07:10;40.33;;;20.67;;
6564;SDS011;3316;44.118;27.258;2024-03-07T02:09:36;39.93;;;21.43;;
6564;SDS011;3316;44.118;27.258;2024-03-07T02:12:03;42.20;;;21.83;;
6564;SDS011;3316;44.118;27.258;2024-03-07T02:14:29;44.93;;;21.50;;
6564;SDS011;3316;44.118;27.258;2024-03-07T02:16:55;39.90;;;21.63;;
6564;SDS011;3316;44.118;27.258;2024-03-07T02:19:24;42.67;;;21.23;;
6564;SDS011;3316;44.118;27.258;2024-03-07T02:21:49;53.60;;;22.63;;
6564;SDS011;3316;44.118;27.258;2024-03-07T02:24:15;42.57;;;22.63;;
6564;SDS011;3316;44.118;27.258;2024-03-07T02:26:40;47.33;;;23.07;;
6564;SDS011;3316;44.118;27.258;2024-03-07T02:29:06;43.90;;;24.20;;
6564;SDS011;3316;44.118;27.258;2024-03-07T02:31:32;54.77;;;28.30;;
6564;SDS011;3316;44.118;27.258;2024-03-07T02:34:02;50.43;;;28.27;;
6564;SDS011;3316;44.118;27.258;2024-03-07T02:36:32;54.33;;;27.90;;
6564;SDS011;3316;44.118;27.258;2024-03-07T02:38:58;45.13;;;26.33;;
6564;SDS011;3316;44.118;27.258;2024-03-07T02:41:25;46.30;;;25.50;;
6564;SDS011;3316;44.118;27.258;2024-03-07T02:43:50;46.10;;;22.37;;
6564;SDS011;3316;44.118;27.258;2024-03-07T02:46:17;41.27;;;21.07;;
6564;SDS011;3316;44.118;27.258;2024-03-07T02:48:42;44.53;;;23.07;;
6564;SDS011;3316;44.118;27.258;2024-03-07T02:51:09;51.83;;;23.87;;
6564;SDS011;3316;44.118;27.258;2024-03-07T02:53:34;51.23;;;25.00;;
6564;SDS011;3316;44.118;27.258;2024-03-07T02:56:00;44.93;;;23.47;;
6564;SDS011;3316;44.118;27.258;2024-03-07T02:58:25;46.30;;;26.67;;
6564;SDS011;3316;44.118;27.258;2024-03-07T03:00:58;59.60;;;27.00;;
6564;SDS011;3316;44.118;27.258;2024-03-07T03:03:25;54.13;;;26.40;;
6564;SDS011;3316;44.118;27.258;2024-03-07T03:05:56;50.37;;;25.47;;
6564;SDS011;3316;44.118;27.258;2024-03-07T03:08:22;45.83;;;25.73;;
6564;SDS011;3316;44.118;27.258;2024-03-07T03:10:47;52.90;;;30.10;;
6564;SDS011;3316;44.118;27.258;2024-03-07T03:13:13;46.53;;;26.30;;
6564;SDS011;3316;44.118;27.258;2024-03-07T03:15:38;48.83;;;25.60;;
6564;SDS011;3316;44.118;27.258;2024-03-07T03:18:04;45.17;;;26.87;;
6564;SDS011;3316;44.118;27.258;2024-03-07T03:20:30;45.70;;;25.57;;
6564;SDS011;3316;44.118;27.258;2024-03-07T03:22:59;54.40;;;24.63;;
6564;SDS011;3316;44.118;27.258;2024-03-07T03:25:27;42.80;;;22.53;;
6564;SDS011;3316;44.118;27.258;2024-03-07T03:27:53;47.30;;;22.60;;
6564;SDS011;3316;44.118;27.258;2024-03-07T03:30:18;44.93;;;25.10;;
6564;SDS011;3316;44.118;27.258;2024-03-07T03:32:45;40.10;;;23.07;;
6564;SDS011;3316;44.118;27.258;2024-03-07T03:35:11;46.53;;;25.63;;
6564;SDS011;3316;44.118;27.258;2024-03-07T03:37:41;43.17;;;23.83;;
6564;SDS011;3316;44.118;27.258;2024-03-07T03:40:08;48.47;;;23.73;;
6564;SDS011;3316;44.118;27.258;2024-03-07T03:42:37;43.00;;;23.90;;
6564;SDS011;3316;44.118;27.258;2024-03-07T03:45:04;41.00;;;22.13;;
6564;SDS011;3316;44.118;27.258;2024-03-07T03:47:37;40.80;;;22.70;;
6564;SDS011;3316;44.118;27.258;2024-03-07T03:50:06;42.03;;;22.47;;
6564;SDS011;3316;44.118;27.258;2024-03-07T03:52:33;38.60;;;21.40;;
6564;SDS011;3316;44.118;27.258;2024-03-07T03:55:02;42.70;;;21.63;;
6564;SDS011;3316;44.118;27.258;2024-03-07T03:57:32;47.20;;;22.97;;
6564;SDS011;3316;44.118;27.258;2024-03-07T04:00:02;50.53;;;24.73;;
6564;SDS011;3316;44.118;27.258;2024-03-07T04:02:35;44.50;;;22.53;;
6564;SDS011;3316;44.118;27.258;2024-03-07T04:05:02;47.17;;;23.53;;
6564;SDS011;3316;44.118;27.258;2024-03-07T04:07:28;49.83;;;24.30;;
6564;SDS011;3316;44.118;27.258;2024-03-07T04:09:56;45.00;;;21.60;;
6564;SDS011;3316;44.118;27.258;2024-03-07T04:12:23;48.10;;;23.53;;
6564;SDS011;3316;44.118;27.258;2024-03-07T04:14:48;44.30;;;23.13;;
6564;SDS011;3316;44.118;27.258;2024-03-07T04:17:14;45.17;;;23.87;;
6564;SDS011;3316;44.118;27.258;2024-03-07T04:19:39;48.83;;;23.77;;
6564;SDS011;3316;44.118;27.258;2024-03-07T04:22:06;44.03;;;24.53;;
6564;SDS011;3316;44.118;27.258;2024-03-07T04:24:33;49.73;;;26.00;;
6564;SDS011;3316;44.118;27.258;2024-03-07T04:26:59;45.83;;;24.40;;
6564;SDS011;3316;44.118;27.258;2024-03-07T04:29:26;54.27;;;27.20;;
6564;SDS011;3316;44.118;27.258;2024-03-07T04:31:52;55.47;;;27.97;;
6564;SDS011;3316;44.118;27.258;2024-03-07T04:34:17;53.87;;;27.90;;
6564;SDS011;3316;44.118;27.258;2024-03-07T04:36:43;52.87;;;27.27;;
6564;SDS011;3316;44.118;27.258;2024-03-07T04:39:09;56.10;;;28.03;;
6564;SDS011;3316;44.118;27.258;2024-03-07T04:41:47;56.67;;;28.60;;
6564;SDS011;3316;44.118;27.258;2024-03-07T04:44:13;65.47;;;30.30;;
6564;SDS011;3316;44.118;27.258;2024-03-07T04:46:39;69.03;;;31.27;;
6564;SDS011;3316;44.118;27.258;2024-03-07T04:49:07;52.33;;;27.37;;
6564;SDS011;3316;44.118;27.258;2024-03-07T04:51:34;56.43;;;29.47;;
6564;SDS011;3316;44.118;27.258;2024-03-07T04:53:59;57.33;;;29.07;;
6564;SDS011;3316;44.118;27.258;2024-03-07T04:56:25;53.87;;;27.87;;
6564;SDS011;3316;44.118;27.258;2024-03-07T04:58:50;58.37;;;27.83;;
6564;SDS011;3316;44.118;27.258;2024-03-07T05:01:16;60.73;;;31.20;;
6564;SDS011;3316;44.118;27.258;2024-03-07T05:03:41;61.97;;;30.87;;
6564;SDS011;3316;44.118;27.258;2024-03-07T05:06:07;61.30;;;30.13;;
6564;SDS011;3316;44.118;27.258;2024-03-07T05:08:33;52.20;;;27.47;;
6564;SDS011;3316;44.118;27.258;2024-03-07T05:10:58;60.47;;;28.60;;
6564;SDS011;3316;44.118;27.258;2024-03-07T05:13:24;58.37;;;33.17;;
6564;SDS011;3316;44.118;27.258;2024-03-07T05:15:49;63.47;;;30.23;;
6564;SDS011;3316;44.118;27.258;2024-03-07T05:18:16;56.03;;;29.73;;
6564;SDS011;3316;44.118;27.258;2024-03-07T05:20:42;58.57;;;28.50;;
6564;SDS011;3316;44.118;27.258;2024-03-07T05:23:07;63.27;;;31.60;;
6564;SDS011;3316;44.118;27.258;2024-03-07T05:25:35;53.37;;;29.40;;
6564;SDS011;3316;44.118;27.258;2024-03-07T05:28:01;119.80;;;65.67;;
6564;SDS011;3316;44.118;27.258;2024-03-07T05:30:27;54.50;;;26.23;;
6564;SDS011;3316;44.118;27.258;2024-03-07T05:32:53;52.40;;;27.53;;
6564;SDS011;3316;44.118;27.258;2024-03-07T05:35:19;43.07;;;22.90;;
6564;SDS011;3316;44.118;27.258;2024-03-07T05:37:45;41.87;;;24.43;;
6564;SDS011;3316;44.118;27.258;2024-03-07T05:40:12;74.03;;;38.40;;
6564;SDS011;3316;44.118;27.258;2024-03-07T05:42:38;76.80;;;37.47;;
6564;SDS011;3316;44.118;27.258;2024-03-07T05:45:03;47.27;;;24.77;;
6564;SDS011;3316;44.118;27.258;2024-03-07T05:47:32;55.63;;;25.03;;
6564;SDS011;3316;44.118;27.258;2024-03-07T05:49:58;69.63;;;32.53;;
6564;SDS011;3316;44.118;27.258;2024-03-07T05:52:23;74.57;;;31.63;;
6564;SDS011;3316;44.118;27.258;2024-03-07T05:54:49;58.03;;;28.27;;
6564;SDS011;3316;44.118;27.258;2024-03-07T05:57:14;48.60;;;26.13;;
6564;SDS011;3316;44.118;27.258;2024-03-07T05:59:40;48.73;;;26.00;;
6564;SDS011;3316;44.118;27.258;2024-03-07T06:02:05;38.83;;;17.20;;
6564;SDS011;3316;44.118;27.258;2024-03-07T06:04:31;41.27;;;16.97;;
6564;SDS011;3316;44.118;27.258;2024-03-07T06:06:57;33.20;;;16.87;;
6564;SDS011;3316;44.118;27.258;2024-03-07T06:09:23;34.43;;;19.40;;
6564;SDS011;3316;44.118;27.258;2024-03-07T06:11:50;28.98;;;17.27;;
6564;SDS011;3316;44.118;27.258;2024-03-07T06:14:16;35.77;;;16.33;;
6564;SDS011;3316;44.118;27.258;2024-03-07T06:16:42;27.30;;;13.17;;
6564;SDS011;3316;44.118;27.258;2024-03-07T06:19:08;29.40;;;16.00;;
6564;SDS011;3316;44.118;27.258;2024-03-07T06:21:34;29.57;;;16.40;;
6564;SDS011;3316;44.118;27.258;2024-03-07T06:24:04;28.37;;;13.63;;
6564;SDS011;3316;44.118;27.258;2024-03-07T06:26:31;23.80;;;14.30;;
6564;SDS011;3316;44.118;27.258;2024-03-07T06:29:25;35.80;;;14.17;;
6564;SDS011;3316;44.118;27.258;2024-03-07T06:31:53;23.87;;;12.50;;
6564;SDS011;3316;44.118;27.258;2024-03-07T06:34:19;23.70;;;12.97;;
6564;SDS011;3316;44.118;27.258;2024-03-07T06:36:45;27.37;;;11.10;;
6564;SDS011;3316;44.118;27.258;2024-03-07T06:39:10;31.70;;;17.07;;
6564;SDS011;3316;44.118;27.258;2024-03-07T06:41:37;28.20;;;14.83;;
6564;SDS011;3316;44.118;27.258;2024-03-07T06:44:03;31.07;;;16.10;;
6564;SDS011;3316;44.118;27.258;2024-03-07T06:46:29;67.47;;;34.83;;
6564;SDS011;3316;44.118;27.258;2024-03-07T06:48:55;40.87;;;19.63;;
6564;SDS011;3316;44.118;27.258;2024-03-07T06:51:23;30.57;;;15.40;;
6564;SDS011;3316;44.118;27.258;2024-03-07T06:53:49;35.90;;;16.67;;
6564;SDS011;3316;44.118;27.258;2024-03-07T06:56:15;35.53;;;16.50;;
6564;SDS011;3316;44.118;27.258;2024-03-07T06:58:41;33.30;;;16.03;;
6564;SDS011;3316;44.118;27.258;2024-03-07T07:01:07;29.37;;;14.50;;
6564;SDS011;3316;44.118;27.258;2024-03-07T07:03:38;46.80;;;24.30;;
6564;SDS011;3316;44.118;27.258;2024-03-07T07:06:04;30.80;;;15.00;;
6564;SDS011;3316;44.118;27.258;2024-03-07T07:08:32;34.73;;;16.80;;
6564;SDS011;3316;44.118;27.258;2024-03-07T07:10:58;29.97;;;16.00;;
6564;SDS011;3316;44.118;27.258;2024-03-07T07:13:24;34.90;;;17.43;;
6564;SDS011;3316;44.118;27.258;2024-03-07T07:15:49;39.17;;;19.10;;
6564;SDS011;3316;44.118;27.258;2024-03-07T07:18:15;27.70;;;15.97;;
6564;SDS011;3316;44.118;27.258;2024-03-07T07:20:42;26.60;;;15.80;;
6564;SDS011;3316;44.118;27.258;2024-03-07T07:23:07;36.07;;;16.63;;
6564;SDS011;3316;44.118;27.258;2024-03-07T07:25:33;31.33;;;16.60;;
6564;SDS011;3316;44.118;27.258;2024-03-07T07:27:59;29.83;;;16.90;;
6564;SDS011;3316;44.118;27.258;2024-03-07T07:30:25;29.70;;;13.03;;
6564;SDS011;3316;44.118;27.258;2024-03-07T07:32:52;22.67;;;13.93;;
6564;SDS011;3316;44.118;27.258;2024-03-07T07:35:21;35.70;;;17.43;;
6564;SDS011;3316;44.118;27.258;2024-03-07T07:37:47;28.10;;;14.27;;
6564;SDS011;3316;44.118;27.258;2024-03-07T07:40:19;46.03;;;20.07;;
6564;SDS011;3316;44.118;27.258;2024-03-07T07:42:47;30.00;;;15.73;;
6564;SDS011;3316;44.118;27.258;2024-03-07T07:45:17;29.30;;;14.13;;
6564;SDS011;3316;44.118;27.258;2024-03-07T07:47:44;29.03;;;14.00;;
6564;SDS011;3316;44.118;27.258;2024-03-07T07:50:15;25.10;;;12.90;;
6564;SDS011;3316;44.118;27.258;2024-03-07T07:55:11;30.60;;;12.83;;
6564;SDS011;3316;44.118;27.258;2024-03-07T07:57:42;26.27;;;14.63;;
6564;SDS011;3316;44.118;27.258;2024-03-07T08:00:12;28.13;;;13.63;;
6564;SDS011;3316;44.118;27.258;2024-03-07T08:02:47;28.80;;;15.30;;
6564;SDS011;3316;44.118;27.258;2024-03-07T08:05:23;20.10;;;12.27;;
6564;SDS011;3316;44.118;27.258;2024-03-07T08:07:50;24.43;;;12.87;;
6564;SDS011;3316;44.118;27.258;2024-03-07T08:10:17;30.70;;;14.73;;
6564;SDS011;3316;44.118;27.258;2024-03-07T08:12:44;23.73;;;14.67;;
6564;SDS011;3316;44.118;27.258;2024-03-07T08:15:13;33.70;;;14.37;;
6564;SDS011;3316;44.118;27.258;2024-03-07T08:17:43;29.13;;;14.83;;
6564;SDS011;3316;44.118;27.258;2024-03-07T08:20:12;24.93;;;12.93;;
6564;SDS011;3316;44.118;27.258;2024-03-07T08:22:39;27.07;;;13.37;;
6564;SDS011;3316;44.118;27.258;2024-03-07T08:25:06;38.13;;;21.90;;
6564;SDS011;3316;44.118;27.258;2024-03-07T08:27:34;45.37;;;25.20;;
6564;SDS011;3316;44.118;27.258;2024-03-07T08:30:03;26.53;;;14.43;;
6564;SDS011;3316;44.118;27.258;2024-03-07T08:32:31;25.53;;;13.67;;
6564;SDS011;3316;44.118;27.258;2024-03-07T08:35:02;29.77;;;14.37;;
6564;SDS011;3316;44.118;27.258;2024-03-07T08:37:31;29.33;;;14.23;;
6564;SDS011;3316;44.118;27.258;2024-03-07T08:39:59;21.53;;;13.87;;
6564;SDS011;3316;44.118;27.258;2024-03-07T08:42:24;24.43;;;13.13;;
6564;SDS011;3316;44.118;27.258;2024-03-07T08:44:50;35.97;;;16.10;;
6564;SDS011;3316;44.118;27.258;2024-03-07T08:47:15;31.43;;;17.13;;
6564;SDS011;3316;44.118;27.258;2024-03-07T08:49:41;19.93;;;13.10;;
6564;SDS011;3316;44.118;27.258;2024-03-07T08:52:07;22.33;;;13.63;;
6564;SDS011;3316;44.118;27.258;2024-03-07T08:54:33;30.47;;;13.83;;
6564;SDS011;3316;44.118;27.258;2024-03-07T08:56:58;24.40;;;13.07;;
6564;SDS011;3316;44.118;27.258;2024-03-07T08:59:24;22.10;;;12.57;;
6564;SDS011;3316;44.118;27.258;2024-03-07T09:01:50;23.53;;;14.53;;
6564;SDS011;3316;44.118;27.258;2024-03-07T09:04:17;21.27;;;13.23;;
6564;SDS011;3316;44.118;27.258;2024-03-07T09:06:43;28.23;;;14.77;;
6564;SDS011;3316;44.118;27.258;2024-03-07T09:09:10;30.60;;;18.10;;
6564;SDS011;3316;44.118;27.258;2024-03-07T09:11:35;19.27;;;13.13;;
6564;SDS011;3316;44.118;27.258;2024-03-07T09:14:01;20.63;;;12.43;;
6564;SDS011;3316;44.118;27.258;2024-03-07T09:16:28;26.93;;;12.87;;
6564;SDS011;3316;44.118;27.258;2024-03-07T09:18:53;30.07;;;15.00;;
6564;SDS011;3316;44.118;27.258;2024-03-07T09:21:20;19.90;;;13.40;;
6564;SDS011;3316;44.118;27.258;2024-03-07T09:23:45;24.13;;;12.13;;
6564;SDS011;3316;44.118;27.258;2024-03-07T09:26:11;23.37;;;11.70;;
6564;SDS011;3316;44.118;27.258;2024-03-07T09:28:36;29.03;;;17.33;;
6564;SDS011;3316;44.118;27.258;2024-03-07T09:31:01;20.37;;;11.37;;
6564;SDS011;3316;44.118;27.258;2024-03-07T09:33:27;17.73;;;10.27;;
6564;SDS011;3316;44.118;27.258;2024-03-07T09:35:52;20.33;;;10.83;;
6564;SDS011;3316;44.118;27.258;2024-03-07T09:38:18;30.53;;;16.40;;
6564;SDS011;3316;44.118;27.258;2024-03-07T09:40:43;14.23;;;7.40;;
6564;SDS011;3316;44.118;27.258;2024-03-07T09:43:12;23.40;;;10.67;;
6564;SDS011;3316;44.118;27.258;2024-03-07T09:45:38;22.27;;;14.07;;
6564;SDS011;3316;44.118;27.258;2024-03-07T09:48:05;20.07;;;10.03;;
6564;SDS011;3316;44.118;27.258;2024-03-07T09:50:34;19.33;;;10.63;;
6564;SDS011;3316;44.118;27.258;2024-03-07T09:53:01;22.13;;;10.47;;
6564;SDS011;3316;44.118;27.258;2024-03-07T09:55:29;13.27;;;8.63;;
6564;SDS011;3316;44.118;27.258;2024-03-07T09:57:56;16.83;;;9.73;;
6564;SDS011;3316;44.118;27.258;2024-03-07T10:00:25;22.70;;;10.87;;
6564;SDS011;3316;44.118;27.258;2024-03-07T10:02:57;17.57;;;11.27;;
6564;SDS011;3316;44.118;27.258;2024-03-07T10:05:32;15.77;;;8.00;;
6564;SDS011;3316;44.118;27.258;2024-03-07T10:07:58;21.33;;;10.70;;
6564;SDS011;3316;44.118;27.258;2024-03-07T10:10:24;14.17;;;8.77;;
6564;SDS011;3316;44.118;27.258;2024-03-07T10:12:50;19.47;;;12.63;;
6564;SDS011;3316;44.118;27.258;2024-03-07T10:15:18;20.50;;;11.77;;
6564;SDS011;3316;44.118;27.258;2024-03-07T10:17:44;19.77;;;11.40;;
6564;SDS011;3316;44.118;27.258;2024-03-07T10:20:12;12.93;;;7.73;;
6564;SDS011;3316;44.118;27.258;2024-03-07T10:22:39;24.73;;;11.17;;
6564;SDS011;3316;44.118;27.258;2024-03-07T10:25:06;14.60;;;8.87;;
6564;SDS011;3316;44.118;27.258;2024-03-07T10:27:31;18.37;;;11.40;;
6564;SDS011;3316;44.118;27.258;2024-03-07T10:30:01;16.83;;;11.17;;
6564;SDS011;3316;44.118;27.258;2024-03-07T10:32:26;18.33;;;11.90;;
6564;SDS011;3316;44.118;27.258;2024-03-07T10:34:52;19.90;;;10.17;;
6564;SDS011;3316;44.118;27.258;2024-03-07T10:37:18;20.67;;;11.30;;
6564;SDS011;3316;44.118;27.258;2024-03-07T10:39:47;20.53;;;9.83;;
6564;SDS011;3316;44.118;27.258;2024-03-07T10:42:16;20.50;;;11.40;;
6564;SDS011;3316;44.118;27.258;2024-03-07T10:44:44;138.70;;;76.00;;
6564;SDS011;3316;44.118;27.258;2024-03-07T10:47:11;19.00;;;8.03;;
6564;SDS011;3316;44.118;27.258;2024-03-07T10:49:46;18.23;;;12.03;;
6564;SDS011;3316;44.118;27.258;2024-03-07T10:52:29;31.23;;;11.33;;
6564;SDS011;3316;44.118;27.258;2024-03-07T10:57:56;22.87;;;10.30;;
6564;SDS011;3316;44.118;27.258;2024-03-07T11:00:36;19.10;;;10.30;;
6564;SDS011;3316;44.118;27.258;2024-03-07T11:03:10;43.00;;;22.43;;
6564;SDS011;3316;44.118;27.258;2024-03-07T11:05:36;13.03;;;8.43;;
6564;SDS011;3316;44.118;27.258;2024-03-07T11:08:02;56.43;;;31.00;;
6564;SDS011;3316;44.118;27.258;2024-03-07T11:10:38;21.87;;;10.83;;
6564;SDS011;3316;44.118;27.258;2024-03-07T11:13:07;21.17;;;11.13;;
6564;SDS011;3316;44.118;27.258;2024-03-07T11:15:37;17.70;;;9.60;;
6564;SDS011;3316;44.118;27.258;2024-03-07T11:18:06;18.87;;;9.23;;
6564;SDS011;3316;44.118;27.258;2024-03-07T11:26:10;17.33;;;8.57;;
6564;SDS011;3316;44.118;27.258;2024-03-07T11:28:39;14.67;;;7.10;;
6564;SDS011;3316;44.118;27.258;2024-03-07T11:31:07;15.83;;;6.67;;
6564;SDS011;3316;44.118;27.258;2024-03-07T11:33:34;14.60;;;9.57;;
6564;SDS011;3316;44.118;27.258;2024-03-07T11:36:01;40.83;;;18.80;;
6564;SDS011;3316;44.118;27.258;2024-03-07T11:38:32;16.13;;;9.57;;
6564;SDS011;3316;44.118;27.258;2024-03-07T11:40:59;15.07;;;9.07;;
6564;SDS011;3316;44.118;27.258;2024-03-07T11:43:27;7.87;;;5.27;;
6564;SDS011;3316;44.118;27.258;2024-03-07T11:45:53;18.20;;;9.70;;
6564;SDS011;3316;44.118;27.258;2024-03-07T11:48:22;17.87;;;10.03;;
6564;SDS011;3316;44.118;27.258;2024-03-07T11:50:48;20.37;;;10.67;;
6564;SDS011;3316;44.118;27.258;2024-03-07T11:53:15;15.50;;;9.23;;
6564;SDS011;3316;44.118;27.258;2024-03-07T11:55:42;18.00;;;9.87;;
6564;SDS011;3316;44.118;27.258;2024-03-07T11:58:28;16.20;;;8.93;;
6564;SDS011;3316;44.118;27.258;2024-03-07T12:00:57;16.00;;;9.43;;
6564;SDS011;3316;44.118;27.258;2024-03-07T12:03:23;14.87;;;8.87;;
6564;SDS011;3316;44.118;27.258;2024-03-07T12:05:51;16.13;;;9.77;;
6564;SDS011;3316;44.118;27.258;2024-03-07T12:08:17;14.40;;;9.47;;
6564;SDS011;3316;44.118;27.258;2024-03-07T12:10:43;42.43;;;20.47;;
6564;SDS011;3316;44.118;27.258;2024-03-07T12:13:12;20.87;;;11.10;;
6564;SDS011;3316;44.118;27.258;2024-03-07T12:15:40;16.93;;;9.30;;
6564;SDS011;3316;44.118;27.258;2024-03-07T12:18:07;15.30;;;8.60;;
6564;SDS011;3316;44.118;27.258;2024-03-07T12:20:35;19.80;;;10.37;;
6564;SDS011;3316;44.118;27.258;2024-03-07T12:23:04;10.00;;;6.30;;
6564;SDS011;3316;44.118;27.258;2024-03-07T12:25:33;17.67;;;10.57;;
6564;SDS011;3316;44.118;27.258;2024-03-07T12:28:06;19.07;;;10.43;;
6564;SDS011;3316;44.118;27.258;2024-03-07T12:33:17;21.83;;;11.50;;
6564;SDS011;3316;44.118;27.258;2024-03-07T12:35:45;21.83;;;12.03;;
6564;SDS011;3316;44.118;27.258;2024-03-07T12:38:17;20.67;;;12.30;;
6564;SDS011;3316;44.118;27.258;2024-03-07T12:41:00;20.83;;;13.17;;
6564;SDS011;3316;44.118;27.258;2024-03-07T12:43:31;22.83;;;12.50;;
6564;SDS011;3316;44.118;27.258;2024-03-07T12:45:57;23.33;;;12.30;;
6564;SDS011;3316;44.118;27.258;2024-03-07T12:48:24;33.07;;;14.20;;
6564;SDS011;3316;44.118;27.258;2024-03-07T12:50:50;32.83;;;15.77;;
6564;SDS011;3316;44.118;27.258;2024-03-07T12:53:24;23.30;;;12.50;;
6564;SDS011;3316;44.118;27.258;2024-03-07T12:55:54;20.33;;;11.87;;
6564;SDS011;3316;44.118;27.258;2024-03-07T12:58:19;21.63;;;11.80;;
6564;SDS011;3316;44.118;27.258;2024-03-07T13:00:47;18.27;;;11.37;;
6564;SDS011;3316;44.118;27.258;2024-03-07T13:03:12;36.27;;;20.63;;
6564;SDS011;3316;44.118;27.258;2024-03-07T13:05:41;24.63;;;12.70;;
6564;SDS011;3316;44.118;27.258;2024-03-07T13:08:08;26.03;;;13.37;;
6564;SDS011;3316;44.118;27.258;2024-03-07T13:10:43;22.00;;;13.33;;
6564;SDS011;3316;44.118;27.258;2024-03-07T13:13:09;18.77;;;12.77;;
6564;SDS011;3316;44.118;27.258;2024-03-07T13:15:36;21.50;;;12.70;;
6564;SDS011;3316;44.118;27.258;2024-03-07T13:18:03;22.73;;;12.23;;
6564;SDS011;3316;44.118;27.258;2024-03-07T13:20:30;23.53;;;13.93;;
6564;SDS011;3316;44.118;27.258;2024-03-07T13:22:56;21.37;;;10.83;;
6564;SDS011;3316;44.118;27.258;2024-03-07T13:25:24;27.17;;;13.60;;
6564;SDS011;3316;44.118;27.258;2024-03-07T13:28:04;29.53;;;14.30;;
6564;SDS011;3316;44.118;27.258;2024-03-07T13:30:41;32.20;;;13.83;;
6564;SDS011;3316;44.118;27.258;2024-03-07T13:33:08;24.80;;;13.27;;
6564;SDS011;3316;44.118;27.258;2024-03-07T13:35:37;19.03;;;12.20;;
6564;SDS011;3316;44.118;27.258;2024-03-07T13:38:03;32.43;;;14.37;;
6564;SDS011;3316;44.118;27.258;2024-03-07T13:40:29;21.43;;;9.33;;
6564;SDS011;3316;44.118;27.258;2024-03-07T13:42:58;23.47;;;12.70;;
6564;SDS011;3316;44.118;27.258;2024-03-07T13:45:26;33.90;;;15.47;;
6564;SDS011;3316;44.118;27.258;2024-03-07T13:47:54;31.63;;;14.73;;
6564;SDS011;3316;44.118;27.258;2024-03-07T13:50:20;25.03;;;13.00;;
6564;SDS011;3316;44.118;27.258;2024-03-07T13:52:51;43.50;;;23.37;;
6564;SDS011;3316;44.118;27.258;2024-03-07T13:59:20;19.07;;;11.10;;
6564;SDS011;3316;44.118;27.258;2024-03-07T14:04:38;19.83;;;11.70;;
6564;SDS011;3316;44.118;27.258;2024-03-07T14:30:36;24.50;;;12.73;;
6564;SDS011;3316;44.118;27.258;2024-03-07T14:33:08;28.37;;;14.13;;
6564;SDS011;3316;44.118;27.258;2024-03-07T14:38:39;22.70;;;13.13;;
6564;SDS011;3316;44.118;27.258;2024-03-07T14:41:13;21.63;;;12.20;;
6564;SDS011;3316;44.118;27.258;2024-03-07T14:43:41;23.57;;;15.33;;
6564;SDS011;3316;44.118;27.258;2024-03-07T14:46:11;52.03;;;25.03;;
6564;SDS011;3316;44.118;27.258;2024-03-07T14:48:39;29.07;;;15.40;;
6564;SDS011;3316;44.118;27.258;2024-03-07T14:51:06;27.37;;;14.87;;
6564;SDS011;3316;44.118;27.258;2024-03-07T14:53:33;31.63;;;17.10;;
6564;SDS011;3316;44.118;27.258;2024-03-07T14:55:59;26.10;;;13.83;;
6564;SDS011;3316;44.118;27.258;2024-03-07T14:58:24;26.30;;;13.17;;
6564;SDS011;3316;44.118;27.258;2024-03-07T15:00:51;32.67;;;15.80;;
6564;SDS011;3316;44.118;27.258;2024-03-07T15:03:19;27.90;;;15.03;;
6564;SDS011;3316;44.118;27.258;2024-03-07T15:05:45;23.87;;;13.10;;
6564;SDS011;3316;44.118;27.258;2024-03-07T15:08:11;52.97;;;26.73;;
6564;SDS011;3316;44.118;27.258;2024-03-07T15:10:38;27.90;;;14.73;;
6564;SDS011;3316;44.118;27.258;2024-03-07T15:13:10;60.27;;;29.03;;
6564;SDS011;3316;44.118;27.258;2024-03-07T15:15:37;32.43;;;18.03;;
6564;SDS011;3316;44.118;27.258;2024-03-07T15:18:06;28.20;;;16.23;;
6564;SDS011;3316;44.118;27.258;2024-03-07T15:20:31;29.00;;;15.13;;
6564;SDS011;3316;44.118;27.258;2024-03-07T15:22:57;39.80;;;20.97;;